ORMM/BSR METAR and TAF weather

Enter ICAO airport designator
Station Type Date Time Source
ORMM METAR 2019/02/17 15:00 UTC NOAA

ORMM 171500Z 28016KT CAVOK 20/04 Q1018 NOSIG


Station Type Date Time Source
ORMM Decoded METAR 2019/02/17 15:00 UTC NOAA

Station name not available
Feb 17, 2019 - 10:00 AM EST / 2019.02.17 1500 UTC
Wind: from the W (280 degrees) at 18 MPH (16 KT):0
Visibility: greater than 7 mile(s):0
Temperature: 68 F (20 C)
Dew Point: 39 F (4 C)
Relative Humidity: 34%
Pressure (altimeter): 30.06 in. Hg (1018 hPa)
ob: ORMM 171500Z 28016KT CAVOK 20/04 Q1018 NOSIG
cycle: 15

Station Type Date Time Source
ORMM TAF 2019/02/17 12:50 UTC NOAA

TAF ORMM 171000Z 1712/1812 32012KT CAVOK


Example: see airport list